sensor_id;sensor_type;location;lat;lon;timestamp;pressure;altitude;pressure_sealevel;temperature;humidity
75998;BME280;64685;48.762;44.822;2023-02-12T00:03:21;102116.56;;;-7.56;65.57
75998;BME280;64685;48.762;44.822;2023-02-12T00:08:27;102116.09;;;-7.67;64.90
75998;BME280;64685;48.762;44.822;2023-02-12T00:13:30;102110.50;;;-7.74;64.66
75998;BME280;64685;48.762;44.822;2023-02-12T00:18:32;102104.91;;;-7.72;64.67
75998;BME280;64685;48.762;44.822;2023-02-12T00:23:36;102097.94;;;-7.59;65.50
75998;BME280;64685;48.762;44.822;2023-02-12T00:28:40;102091.81;;;-7.61;64.59
75998;BME280;64685;48.762;44.822;2023-02-12T00:33:49;102072.88;;;-7.69;65.51
75998;BME280;64685;48.762;44.822;2023-02-12T00:38:53;102057.81;;;-7.87;65.63
75998;BME280;64685;48.762;44.822;2023-02-12T00:43:58;102058.66;;;-7.87;64.51
75998;BME280;64685;48.762;44.822;2023-02-12T00:49:01;102042.25;;;-7.93;65.20
75998;BME280;64685;48.762;44.822;2023-02-12T00:54:04;102043.09;;;-8.09;64.35
75998;BME280;64685;48.762;44.822;2023-02-12T00:59:06;102034.63;;;-8.14;66.06
75998;BME280;64685;48.762;44.822;2023-02-12T01:04:09;102037.69;;;-8.09;64.57
75998;BME280;64685;48.762;44.822;2023-02-12T01:09:13;102043.78;;;-8.15;65.37
75998;BME280;64685;48.762;44.822;2023-02-12T01:14:16;102035.84;;;-8.24;65.50
75998;BME280;64685;48.762;44.822;2023-02-12T01:19:19;102042.97;;;-8.23;65.08
75998;BME280;64685;48.762;44.822;2023-02-12T01:24:21;102041.41;;;-8.18;64.54
75998;BME280;64685;48.762;44.822;2023-02-12T01:29:27;102037.19;;;-8.20;64.72
75998;BME280;64685;48.762;44.822;2023-02-12T01:34:29;102029.88;;;-8.12;65.19
75998;BME280;64685;48.762;44.822;2023-02-12T01:39:33;102027.19;;;-8.04;64.69
75998;BME280;64685;48.762;44.822;2023-02-12T01:44:43;102015.16;;;-8.09;63.97
75998;BME280;64685;48.762;44.822;2023-02-12T01:49:47;102011.44;;;-8.00;64.03
75998;BME280;64685;48.762;44.822;2023-02-12T01:54:51;102009.84;;;-7.79;63.09
75998;BME280;64685;48.762;44.822;2023-02-12T01:59:59;102014.59;;;-7.65;62.68
75998;BME280;64685;48.762;44.822;2023-02-12T02:05:20;102013.88;;;-7.59;63.17
75998;BME280;64685;48.762;44.822;2023-02-12T02:10:24;102015.19;;;-7.55;63.39
75998;BME280;64685;48.762;44.822;2023-02-12T02:15:29;102012.66;;;-7.48;63.25
75998;BME280;64685;48.762;44.822;2023-02-12T02:26:04;101980.25;;;-7.42;61.96
75998;BME280;64685;48.762;44.822;2023-02-12T02:31:48;101978.38;;;-7.41;61.21
75998;BME280;64685;48.762;44.822;2023-02-12T02:42:24;101959.38;;;-7.41;61.82
75998;BME280;64685;48.762;44.822;2023-02-12T02:47:32;101956.84;;;-7.43;60.85
75998;BME280;64685;48.762;44.822;2023-02-12T02:52:46;101939.31;;;-7.63;61.45
75998;BME280;64685;48.762;44.822;2023-02-12T02:57:56;101931.75;;;-7.75;60.79
75998;BME280;64685;48.762;44.822;2023-02-12T03:03:19;101933.19;;;-7.57;62.11
75998;BME280;64685;48.762;44.822;2023-02-12T03:08:29;101921.53;;;-7.65;60.71
75998;BME280;64685;48.762;44.822;2023-02-12T03:13:41;101931.19;;;-7.71;61.54
75998;BME280;64685;48.762;44.822;2023-02-12T03:18:53;101930.16;;;-7.62;61.81
75998;BME280;64685;48.762;44.822;2023-02-12T03:24:01;101920.13;;;-7.53;60.62
75998;BME280;64685;48.762;44.822;2023-02-12T03:29:07;101919.25;;;-7.54;61.67
75998;BME280;64685;48.762;44.822;2023-02-12T03:39:54;101906.81;;;-7.32;61.18
75998;BME280;64685;48.762;44.822;2023-02-12T03:45:09;101909.28;;;-7.23;60.79
75998;BME280;64685;48.762;44.822;2023-02-12T03:55:48;101908.00;;;-7.12;60.58
75998;BME280;64685;48.762;44.822;2023-02-12T04:00:55;101900.50;;;-7.25;60.39
75998;BME280;64685;48.762;44.822;2023-02-12T04:05:58;101911.13;;;-7.23;60.40
75998;BME280;64685;48.762;44.822;2023-02-12T04:11:28;101925.50;;;-7.15;60.38
75998;BME280;64685;48.762;44.822;2023-02-12T04:16:46;101930.81;;;-7.21;60.68
75998;BME280;64685;48.762;44.822;2023-02-12T04:22:35;101921.25;;;-7.40;60.39
75998;BME280;64685;48.762;44.822;2023-02-12T04:27:50;101918.19;;;-7.37;60.54
75998;BME280;64685;48.762;44.822;2023-02-12T04:33:05;101912.22;;;-7.32;60.28
75998;BME280;64685;48.762;44.822;2023-02-12T04:38:12;101901.72;;;-7.35;60.46
75998;BME280;64685;48.762;44.822;2023-02-12T04:43:30;101888.88;;;-7.41;59.29
75998;BME280;64685;48.762;44.822;2023-02-12T04:53:51;101891.41;;;-7.17;60.22
75998;BME280;64685;48.762;44.822;2023-02-12T04:58:53;101881.72;;;-7.12;59.22
75998;BME280;64685;48.762;44.822;2023-02-12T05:03:58;101873.84;;;-7.21;59.51
75998;BME280;64685;48.762;44.822;2023-02-12T05:09:02;101864.84;;;-7.22;60.49
75998;BME280;64685;48.762;44.822;2023-02-12T05:14:05;101853.88;;;-7.28;60.08
75998;BME280;64685;48.762;44.822;2023-02-12T05:19:09;101861.16;;;-7.06;59.78
75998;BME280;64685;48.762;44.822;2023-02-12T05:24:11;101850.56;;;-6.93;59.71
75998;BME280;64685;48.762;44.822;2023-02-12T05:29:17;101852.84;;;-6.82;59.16
75998;BME280;64685;48.762;44.822;2023-02-12T05:34:20;101844.47;;;-6.58;59.66
75998;BME280;64685;48.762;44.822;2023-02-12T05:39:23;101838.91;;;-6.65;59.72
75998;BME280;64685;48.762;44.822;2023-02-12T05:44:25;101814.53;;;-6.87;59.93
75998;BME280;64685;48.762;44.822;2023-02-12T05:49:31;101795.81;;;-6.82;59.90
75998;BME280;64685;48.762;44.822;2023-02-12T05:54:33;101793.94;;;-5.80;59.94
75998;BME280;64685;48.762;44.822;2023-02-12T05:59:36;101790.59;;;-4.43;58.12
75998;BME280;64685;48.762;44.822;2023-02-12T06:04:38;101763.81;;;-3.26;56.11
75998;BME280;64685;48.762;44.822;2023-02-12T06:09:41;101755.63;;;-2.48;55.22
75998;BME280;64685;48.762;44.822;2023-02-12T06:14:44;101767.63;;;-1.42;52.89
75998;BME280;64685;48.762;44.822;2023-02-12T06:19:47;101740.91;;;-1.46;52.03
75998;BME280;64685;48.762;44.822;2023-02-12T06:24:49;101740.75;;;-0.96;51.03
75998;BME280;64685;48.762;44.822;2023-02-12T06:29:58;101730.66;;;-0.11;49.98
75998;BME280;64685;48.762;44.822;2023-02-12T06:35:00;101729.03;;;0.47;48.27
75998;BME280;64685;48.762;44.822;2023-02-12T06:40:04;101732.00;;;0.64;47.20
75998;BME280;64685;48.762;44.822;2023-02-12T06:45:07;101736.50;;;-1.16;48.56
75998;BME280;64685;48.762;44.822;2023-02-12T06:50:10;101717.34;;;-1.91;49.92
75998;BME280;64685;48.762;44.822;2023-02-12T06:55:13;101722.09;;;-2.24;50.44
75998;BME280;64685;48.762;44.822;2023-02-12T07:00:18;101714.56;;;-2.42;51.09
75998;BME280;64685;48.762;44.822;2023-02-12T07:05:21;101709.03;;;-2.09;51.29
75998;BME280;64685;48.762;44.822;2023-02-12T07:10:24;101710.47;;;-2.07;52.06
75998;BME280;64685;48.762;44.822;2023-02-12T07:15:27;101701.63;;;-2.02;52.61
75998;BME280;64685;48.762;44.822;2023-02-12T07:20:29;101700.44;;;-1.75;52.83
75998;BME280;64685;48.762;44.822;2023-02-12T07:25:32;101691.94;;;-1.67;53.58
75998;BME280;64685;48.762;44.822;2023-02-12T07:30:34;101690.03;;;-0.38;52.60
75998;BME280;64685;48.762;44.822;2023-02-12T07:35:43;101683.06;;;-0.05;51.58
75998;BME280;64685;48.762;44.822;2023-02-12T07:40:46;101686.47;;;-0.63;52.50
75998;BME280;64685;48.762;44.822;2023-02-12T07:45:49;101669.16;;;0.67;51.35
75998;BME280;64685;48.762;44.822;2023-02-12T07:50:51;101676.84;;;1.92;49.66
75998;BME280;64685;48.762;44.822;2023-02-12T07:55:54;101666.09;;;1.56;48.33
75998;BME280;64685;48.762;44.822;2023-02-12T08:00:59;101654.00;;;0.76;49.38
75998;BME280;64685;48.762;44.822;2023-02-12T08:06:09;101657.81;;;0.34;49.85
75998;BME280;64685;48.762;44.822;2023-02-12T08:11:14;101630.19;;;0.18;50.73
75998;BME280;64685;48.762;44.822;2023-02-12T08:16:20;101630.16;;;-0.12;51.29
75998;BME280;64685;48.762;44.822;2023-02-12T08:21:25;101637.56;;;-0.30;51.63
75998;BME280;64685;48.762;44.822;2023-02-12T08:26:33;101624.78;;;-0.54;51.97
75998;BME280;64685;48.762;44.822;2023-02-12T08:31:38;101628.66;;;-0.79;52.68
75998;BME280;64685;48.762;44.822;2023-02-12T08:36:41;101611.78;;;-1.01;53.10
75998;BME280;64685;48.762;44.822;2023-02-12T08:41:45;101612.19;;;-1.22;53.87
75998;BME280;64685;48.762;44.822;2023-02-12T08:46:50;101606.94;;;-1.23;54.50
75998;BME280;64685;48.762;44.822;2023-02-12T08:51:55;101579.66;;;-0.94;54.21
75998;BME280;64685;48.762;44.822;2023-02-12T08:57:00;101577.63;;;-0.80;54.33
75998;BME280;64685;48.762;44.822;2023-02-12T09:02:03;101562.25;;;-0.63;54.23
75998;BME280;64685;48.762;44.822;2023-02-12T09:07:09;101551.97;;;-0.38;54.28
75998;BME280;64685;48.762;44.822;2023-02-12T09:12:12;101548.75;;;-0.17;54.14
75998;BME280;64685;48.762;44.822;2023-02-12T09:17:15;101548.38;;;-0.21;54.61
75998;BME280;64685;48.762;44.822;2023-02-12T09:22:17;101531.72;;;-0.38;55.60
75998;BME280;64685;48.762;44.822;2023-02-12T09:27:20;101509.59;;;-0.24;55.65
75998;BME280;64685;48.762;44.822;2023-02-12T09:32:22;101512.19;;;0.00;55.38
75998;BME280;64685;48.762;44.822;2023-02-12T09:37:25;101507.50;;;0.00;55.32
75998;BME280;64685;48.762;44.822;2023-02-12T09:48:31;101482.63;;;0.48;54.80
75998;BME280;64685;48.762;44.822;2023-02-12T09:53:39;101480.94;;;0.81;54.52
75998;BME280;64685;48.762;44.822;2023-02-12T10:03:49;101469.84;;;0.65;54.98
75998;BME280;64685;48.762;44.822;2023-02-12T10:19:51;101458.94;;;0.93;55.93
75998;BME280;64685;48.762;44.822;2023-02-12T10:25:27;101443.50;;;0.92;56.19
75998;BME280;64685;48.762;44.822;2023-02-12T10:30:46;101437.91;;;0.87;56.77
75998;BME280;64685;48.762;44.822;2023-02-12T10:41:32;101431.13;;;1.17;58.00
75998;BME280;64685;48.762;44.822;2023-02-12T10:46:38;101421.81;;;1.46;58.19
75998;BME280;64685;48.762;44.822;2023-02-12T10:51:54;101406.16;;;1.63;57.72
75998;BME280;64685;48.762;44.822;2023-02-12T10:57:06;101405.44;;;1.84;58.34
75998;BME280;64685;48.762;44.822;2023-02-12T11:02:39;101407.47;;;2.05;58.09
75998;BME280;64685;48.762;44.822;2023-02-12T11:07:48;101400.03;;;2.22;57.61
75998;BME280;64685;48.762;44.822;2023-02-12T11:12:52;101405.81;;;2.42;57.49
75998;BME280;64685;48.762;44.822;2023-02-12T11:18:00;101396.28;;;2.50;57.15
75998;BME280;64685;48.762;44.822;2023-02-12T11:23:26;101385.50;;;2.48;56.91
75998;BME280;64685;48.762;44.822;2023-02-12T11:28:31;101380.84;;;2.49;57.54
75998;BME280;64685;48.762;44.822;2023-02-12T11:33:35;101382.34;;;2.56;57.26
75998;BME280;64685;48.762;44.822;2023-02-12T11:38:55;101378.91;;;2.49;58.42
75998;BME280;64685;48.762;44.822;2023-02-12T11:44:00;101370.16;;;2.52;59.41
75998;BME280;64685;48.762;44.822;2023-02-12T11:49:04;101364.78;;;2.24;60.80
75998;BME280;64685;48.762;44.822;2023-02-12T11:54:18;101373.59;;;2.26;61.23
75998;BME280;64685;48.762;44.822;2023-02-12T11:59:40;101381.72;;;2.00;62.62
75998;BME280;64685;48.762;44.822;2023-02-12T12:04:47;101374.31;;;1.84;64.52
75998;BME280;64685;48.762;44.822;2023-02-12T12:10:06;101368.22;;;1.82;65.78
75998;BME280;64685;48.762;44.822;2023-02-12T12:15:27;101369.31;;;1.81;66.23
75998;BME280;64685;48.762;44.822;2023-02-12T12:20:55;101375.53;;;1.76;67.10
75998;BME280;64685;48.762;44.822;2023-02-12T12:26:28;101356.97;;;1.83;66.95
75998;BME280;64685;48.762;44.822;2023-02-12T12:31:43;101344.94;;;1.89;67.58
75998;BME280;64685;48.762;44.822;2023-02-12T12:58:22;101332.59;;;1.75;69.45
75998;BME280;64685;48.762;44.822;2023-02-12T13:30:34;101271.03;;;1.48;71.87
75998;BME280;64685;48.762;44.822;2023-02-12T13:35:42;101268.28;;;1.48;72.25
75998;BME280;64685;48.762;44.822;2023-02-12T13:40:47;101274.22;;;1.40;72.24
75998;BME280;64685;48.762;44.822;2023-02-12T13:46:11;101263.44;;;1.39;72.51
75998;BME280;64685;48.762;44.822;2023-02-12T13:56:24;101253.19;;;1.34;73.15
75998;BME280;64685;48.762;44.822;2023-02-12T14:01:39;101243.00;;;1.35;73.62
75998;BME280;64685;48.762;44.822;2023-02-12T14:07:10;101251.53;;;1.33;73.75
75998;BME280;64685;48.762;44.822;2023-02-12T14:12:16;101247.38;;;1.31;74.10
75998;BME280;64685;48.762;44.822;2023-02-12T14:28:05;101225.09;;;1.32;74.65
75998;BME280;64685;48.762;44.822;2023-02-12T14:33:23;101223.94;;;1.28;75.18
75998;BME280;64685;48.762;44.822;2023-02-12T14:43:48;101229.53;;;1.33;75.28
75998;BME280;64685;48.762;44.822;2023-02-12T14:49:03;101222.50;;;1.42;75.72
75998;BME280;64685;48.762;44.822;2023-02-12T14:54:17;101222.78;;;1.41;76.02
75998;BME280;64685;48.762;44.822;2023-02-12T14:59:24;101228.00;;;1.42;75.93
75998;BME280;64685;48.762;44.822;2023-02-12T15:04:30;101227.19;;;1.42;76.04
75998;BME280;64685;48.762;44.822;2023-02-12T15:09:42;101212.59;;;1.41;75.38
75998;BME280;64685;48.762;44.822;2023-02-12T15:15:00;101217.59;;;1.44;75.38
75998;BME280;64685;48.762;44.822;2023-02-12T15:20:18;101219.75;;;1.42;75.66
75998;BME280;64685;48.762;44.822;2023-02-12T15:25:23;101206.50;;;1.39;75.54
75998;BME280;64685;48.762;44.822;2023-02-12T15:30:29;101206.59;;;1.44;76.10
75998;BME280;64685;48.762;44.822;2023-02-12T15:35:36;101210.06;;;1.40;76.44
75998;BME280;64685;48.762;44.822;2023-02-12T15:40:53;101205.41;;;1.40;76.18
75998;BME280;64685;48.762;44.822;2023-02-12T15:45:56;101195.25;;;1.41;75.93
75998;BME280;64685;48.762;44.822;2023-02-12T15:56:29;101207.25;;;1.35;76.53
75998;BME280;64685;48.762;44.822;2023-02-12T16:01:34;101197.31;;;1.34;77.00
75998;BME280;64685;48.762;44.822;2023-02-12T16:06:36;101186.66;;;1.37;76.93
75998;BME280;64685;48.762;44.822;2023-02-12T16:11:42;101191.41;;;1.42;77.20
75998;BME280;64685;48.762;44.822;2023-02-12T16:16:48;101189.16;;;1.39;76.96
75998;BME280;64685;48.762;44.822;2023-02-12T16:22:14;101181.16;;;1.37;77.51
75998;BME280;64685;48.762;44.822;2023-02-12T16:27:33;101172.66;;;1.39;77.87
75998;BME280;64685;48.762;44.822;2023-02-12T16:32:39;101170.50;;;1.41;78.02
75998;BME280;64685;48.762;44.822;2023-02-12T16:37:47;101184.06;;;1.47;78.18
75998;BME280;64685;48.762;44.822;2023-02-12T16:58:34;101148.38;;;1.52;78.80
75998;BME280;64685;48.762;44.822;2023-02-12T17:03:38;101141.75;;;1.53;79.07
75998;BME280;64685;48.762;44.822;2023-02-12T17:08:41;101142.63;;;1.54;79.05
75998;BME280;64685;48.762;44.822;2023-02-12T17:13:45;101133.59;;;1.58;79.45
75998;BME280;64685;48.762;44.822;2023-02-12T17:18:48;101125.94;;;1.60;78.90
75998;BME280;64685;48.762;44.822;2023-02-12T17:23:51;101129.41;;;1.56;79.21
75998;BME280;64685;48.762;44.822;2023-02-12T17:28:55;101123.19;;;1.60;79.21
75998;BME280;64685;48.762;44.822;2023-02-12T17:34:09;101118.06;;;1.69;78.82
75998;BME280;64685;48.762;44.822;2023-02-12T17:39:13;101097.81;;;1.80;78.88
75998;BME280;64685;48.762;44.822;2023-02-12T17:44:16;101111.56;;;1.80;79.44
75998;BME280;64685;48.762;44.822;2023-02-12T17:49:19;101110.19;;;1.77;79.09
75998;BME280;64685;48.762;44.822;2023-02-12T17:54:21;101105.50;;;1.78;78.92
75998;BME280;64685;48.762;44.822;2023-02-12T17:59:26;101105.81;;;1.81;79.39
75998;BME280;64685;48.762;44.822;2023-02-12T18:04:30;101094.47;;;1.78;78.75
75998;BME280;64685;48.762;44.822;2023-02-12T18:09:36;101097.13;;;1.89;78.94
75998;BME280;64685;48.762;44.822;2023-02-12T18:14:40;101110.28;;;1.87;78.83
75998;BME280;64685;48.762;44.822;2023-02-12T18:19:43;101083.84;;;1.86;78.67
75998;BME280;64685;48.762;44.822;2023-02-12T18:24:46;101081.16;;;1.91;78.55
75998;BME280;64685;48.762;44.822;2023-02-12T18:29:49;101089.44;;;1.91;78.15
75998;BME280;64685;48.762;44.822;2023-02-12T18:34:51;101095.00;;;1.96;77.98
75998;BME280;64685;48.762;44.822;2023-02-12T18:40:00;101084.53;;;1.98;78.19
75998;BME280;64685;48.762;44.822;2023-02-12T18:45:05;101089.19;;;1.93;77.98
75998;BME280;64685;48.762;44.822;2023-02-12T18:50:09;101095.94;;;2.07;77.67
75998;BME280;64685;48.762;44.822;2023-02-12T18:55:12;101091.28;;;2.07;77.63
75998;BME280;64685;48.762;44.822;2023-02-12T19:00:21;101097.94;;;2.11;78.09
75998;BME280;64685;48.762;44.822;2023-02-12T19:05:24;101093.34;;;2.22;77.58
75998;BME280;64685;48.762;44.822;2023-02-12T19:10:27;101092.63;;;2.31;77.76
75998;BME280;64685;48.762;44.822;2023-02-12T19:15:30;101096.53;;;2.35;77.04
75998;BME280;64685;48.762;44.822;2023-02-12T19:20:34;101087.72;;;2.33;77.25
75998;BME280;64685;48.762;44.822;2023-02-12T19:25:37;101098.03;;;2.21;76.49
75998;BME280;64685;48.762;44.822;2023-02-12T19:30:46;101111.34;;;2.29;76.84
75998;BME280;64685;48.762;44.822;2023-02-12T19:35:49;101110.88;;;2.37;76.24
75998;BME280;64685;48.762;44.822;2023-02-12T19:41:01;101102.34;;;2.39;75.96
75998;BME280;64685;48.762;44.822;2023-02-12T19:46:05;101105.00;;;2.29;75.92
75998;BME280;64685;48.762;44.822;2023-02-12T19:51:16;101116.00;;;2.29;75.34
75998;BME280;64685;48.762;44.822;2023-02-12T19:56:19;101122.16;;;2.36;75.72
75998;BME280;64685;48.762;44.822;2023-02-12T20:01:23;101126.38;;;2.43;75.13
75998;BME280;64685;48.762;44.822;2023-02-12T20:06:29;101103.28;;;2.49;75.10
75998;BME280;64685;48.762;44.822;2023-02-12T20:11:35;101107.91;;;2.44;74.34
75998;BME280;64685;48.762;44.822;2023-02-12T20:16:41;101105.28;;;2.54;74.04
75998;BME280;64685;48.762;44.822;2023-02-12T20:21:48;101114.00;;;2.46;74.44
75998;BME280;64685;48.762;44.822;2023-02-12T20:26:57;101109.44;;;2.56;73.88
75998;BME280;64685;48.762;44.822;2023-02-12T20:32:00;101111.75;;;2.69;73.68
75998;BME280;64685;48.762;44.822;2023-02-12T20:37:04;101120.81;;;2.65;73.05
75998;BME280;64685;48.762;44.822;2023-02-12T20:42:07;101130.59;;;2.51;73.23
75998;BME280;64685;48.762;44.822;2023-02-12T20:47:09;101133.03;;;2.47;72.77
75998;BME280;64685;48.762;44.822;2023-02-12T20:52:12;101138.97;;;2.61;72.92
75998;BME280;64685;48.762;44.822;2023-02-12T20:57:14;101135.16;;;2.67;72.61
75998;BME280;64685;48.762;44.822;2023-02-12T21:02:17;101148.03;;;2.61;72.44
75998;BME280;64685;48.762;44.822;2023-02-12T21:07:20;101136.03;;;2.72;71.99
75998;BME280;64685;48.762;44.822;2023-02-12T21:12:22;101131.84;;;2.65;71.50
75998;BME280;64685;48.762;44.822;2023-02-12T21:17:25;101136.56;;;2.69;72.02
75998;BME280;64685;48.762;44.822;2023-02-12T21:22:29;101133.84;;;2.74;71.56
75998;BME280;64685;48.762;44.822;2023-02-12T21:27:32;101137.78;;;2.83;71.20
75998;BME280;64685;48.762;44.822;2023-02-12T21:32:34;101130.56;;;2.77;71.02
75998;BME280;64685;48.762;44.822;2023-02-12T21:37:37;101137.72;;;2.73;71.09
75998;BME280;64685;48.762;44.822;2023-02-12T21:42:40;101125.00;;;2.72;70.63
75998;BME280;64685;48.762;44.822;2023-02-12T21:47:42;101132.19;;;2.73;70.25
75998;BME280;64685;48.762;44.822;2023-02-12T21:52:46;101127.91;;;2.87;69.87
75998;BME280;64685;48.762;44.822;2023-02-12T21:57:48;101134.41;;;2.76;69.94
75998;BME280;64685;48.762;44.822;2023-02-12T22:02:51;101130.34;;;2.52;69.42
75998;BME280;64685;48.762;44.822;2023-02-12T22:07:53;101129.91;;;2.39;68.98
75998;BME280;64685;48.762;44.822;2023-02-12T22:12:56;101143.25;;;2.25;69.30
75998;BME280;64685;48.762;44.822;2023-02-12T22:17:59;101143.00;;;2.27;68.74
75998;BME280;64685;48.762;44.822;2023-02-12T22:23:01;101152.38;;;2.26;69.15
75998;BME280;64685;48.762;44.822;2023-02-12T22:28:04;101156.84;;;2.32;68.34
75998;BME280;64685;48.762;44.822;2023-02-12T22:33:07;101152.44;;;2.09;68.28
75998;BME280;64685;48.762;44.822;2023-02-12T22:38:09;101164.03;;;2.11;68.26
75998;BME280;64685;48.762;44.822;2023-02-12T22:43:14;101172.56;;;1.88;67.93
75998;BME280;64685;48.762;44.822;2023-02-12T22:48:16;101179.69;;;1.68;67.18
75998;BME280;64685;48.762;44.822;2023-02-12T22:53:20;101185.56;;;1.55;66.28
75998;BME280;64685;48.762;44.822;2023-02-12T22:58:23;101181.81;;;1.28;66.09
75998;BME280;64685;48.762;44.822;2023-02-12T23:03:27;101197.00;;;1.14;65.58
75998;BME280;64685;48.762;44.822;2023-02-12T23:08:30;101206.59;;;1.11;65.20
75998;BME280;64685;48.762;44.822;2023-02-12T23:13:34;101194.84;;;0.99;64.94
75998;BME280;64685;48.762;44.822;2023-02-12T23:18:37;101199.97;;;0.79;65.32
75998;BME280;64685;48.762;44.822;2023-02-12T23:23:39;101192.00;;;0.94;65.16
75998;BME280;64685;48.762;44.822;2023-02-12T23:28:42;101199.09;;;1.07;65.21
75998;BME280;64685;48.762;44.822;2023-02-12T23:33:45;101196.34;;;1.07;64.84
75998;BME280;64685;48.762;44.822;2023-02-12T23:38:47;101193.47;;;0.69;65.09
75998;BME280;64685;48.762;44.822;2023-02-12T23:43:49;101196.34;;;0.34;65.26
75998;BME280;64685;48.762;44.822;2023-02-12T23:48:52;101183.56;;;0.00;65.35
75998;BME280;64685;48.762;44.822;2023-02-12T23:53:55;101196.00;;;-0.09;65.24
75998;BME280;64685;48.762;44.822;2023-02-12T23:58:57;101203.09;;;-0.35;65.38
